Terminal Aerodrome Forecast
Issued by NWS Wilmington, OH

Current Version | Previous Version | Graphics & Text | Print | Product List | Glossary On
Versions: 1 2 3 4 5 6 7 8 9 10 11 12 13 14 15 16 17 18 19 20
000
FTUS41 KILN 282057 AAA
TAFILN
TAF AMD
KILN 282057Z 2821/2918 14005KT P6SM FEW050 BKN250
     FM290000 11004KT P6SM BKN250
     FM291100 14004KT P6SM SCT040 BKN200
     FM291400 20007KT P6SM SCT040 BKN200
     FM291600 21010KT P6SM BKN040=

USA.gov is the U.S. government's official web portal to all federal, state and local government web resources and services.